sensor_id;sensor_type;location;lat;lon;timestamp;pressure;altitude;pressure_sealevel;temperature
75431;BMP280;64127;51.488;5.462;2023-06-22T00:01:47;101628.97;;;24.69
75431;BMP280;64127;51.488;5.462;2023-06-22T00:04:19;101607.56;;;24.62
75431;BMP280;64127;51.488;5.462;2023-06-22T00:06:51;101626.31;;;24.66
75431;BMP280;64127;51.488;5.462;2023-06-22T00:09:23;101629.91;;;24.64
75431;BMP280;64127;51.488;5.462;2023-06-22T00:11:55;101641.56;;;24.61
75431;BMP280;64127;51.488;5.462;2023-06-22T00:14:28;101635.28;;;24.56
75431;BMP280;64127;51.488;5.462;2023-06-22T00:17:00;101631.72;;;24.59
75431;BMP280;64127;51.488;5.462;2023-06-22T00:19:31;101642.47;;;24.59
75431;BMP280;64127;51.488;5.462;2023-06-22T00:22:07;101638.00;;;24.53
75431;BMP280;64127;51.488;5.462;2023-06-22T00:24:39;101645.16;;;24.51
75431;BMP280;64127;51.488;5.462;2023-06-22T00:27:11;101645.19;;;24.48
75431;BMP280;64127;51.488;5.462;2023-06-22T00:29:43;101641.59;;;24.46
75431;BMP280;64127;51.488;5.462;2023-06-22T00:32:15;101634.47;;;24.41
75431;BMP280;64127;51.488;5.462;2023-06-22T00:34:48;101632.69;;;24.37
75431;BMP280;64127;51.488;5.462;2023-06-22T00:37:22;101642.53;;;24.35
75431;BMP280;64127;51.488;5.462;2023-06-22T00:39:57;101630.91;;;24.28
75431;BMP280;64127;51.488;5.462;2023-06-22T00:42:29;101623.78;;;24.24
75431;BMP280;64127;51.488;5.462;2023-06-22T00:45:01;101626.47;;;24.24
75431;BMP280;64127;51.488;5.462;2023-06-22T00:47:38;101618.41;;;24.21
75431;BMP280;64127;51.488;5.462;2023-06-22T00:50:18;101626.44;;;24.19
75431;BMP280;64127;51.488;5.462;2023-06-22T00:53:01;101627.38;;;24.17
75431;BMP280;64127;51.488;5.462;2023-06-22T00:55:41;101618.38;;;24.12
75431;BMP280;64127;51.488;5.462;2023-06-22T00:58:19;101609.47;;;24.04
75431;BMP280;64127;51.488;5.462;2023-06-22T01:00:53;101629.13;;;24.09
75431;BMP280;64127;51.488;5.462;2023-06-22T01:03:26;101622.84;;;24.08
75431;BMP280;64127;51.488;5.462;2023-06-22T01:06:08;101620.19;;;24.04
75431;BMP280;64127;51.488;5.462;2023-06-22T01:09:02;101623.78;;;24.03
75431;BMP280;64127;51.488;5.462;2023-06-22T01:11:42;101627.34;;;23.99
75431;BMP280;64127;51.488;5.462;2023-06-22T01:14:35;101614.84;;;23.92
75431;BMP280;64127;51.488;5.462;2023-06-22T01:17:12;101618.44;;;23.94
75431;BMP280;64127;51.488;5.462;2023-06-22T01:19:48;101619.31;;;23.91
75431;BMP280;64127;51.488;5.462;2023-06-22T01:22:33;101623.75;;;23.91
75431;BMP280;64127;51.488;5.462;2023-06-22T01:25:20;101624.69;;;23.90
75431;BMP280;64127;51.488;5.462;2023-06-22T01:31:35;101623.75;;;23.91
75431;BMP280;64127;51.488;5.462;2023-06-22T01:34:09;101623.78;;;23.94
75431;BMP280;64127;51.488;5.462;2023-06-22T01:36:42;101615.72;;;23.92
75431;BMP280;64127;51.488;5.462;2023-06-22T01:39:16;101618.41;;;23.95
75431;BMP280;64127;51.488;5.462;2023-06-22T01:41:50;101614.84;;;23.89
75431;BMP280;64127;51.488;5.462;2023-06-22T01:44:22;101616.63;;;23.93
75431;BMP280;64127;51.488;5.462;2023-06-22T01:46:56;101608.59;;;23.90
75431;BMP280;64127;51.488;5.462;2023-06-22T01:49:28;101607.69;;;23.85
75431;BMP280;64127;51.488;5.462;2023-06-22T01:52:01;101605.00;;;23.85
75431;BMP280;64127;51.488;5.462;2023-06-22T01:54:33;101608.59;;;23.82
75431;BMP280;64127;51.488;5.462;2023-06-22T01:57:06;101608.59;;;23.82
75431;BMP280;64127;51.488;5.462;2023-06-22T02:00:02;101609.50;;;23.77
75431;BMP280;64127;51.488;5.462;2023-06-22T02:02:46;101596.09;;;23.69
75431;BMP280;64127;51.488;5.462;2023-06-22T02:05:24;101605.03;;;23.79
75431;BMP280;64127;51.488;5.462;2023-06-22T02:10:40;101608.59;;;23.78
75431;BMP280;64127;51.488;5.462;2023-06-22T02:13:16;101610.38;;;23.79
75431;BMP280;64127;51.488;5.462;2023-06-22T02:15:48;101613.97;;;23.79
75431;BMP280;64127;51.488;5.462;2023-06-22T02:18:21;101604.13;;;23.73
75431;BMP280;64127;51.488;5.462;2023-06-22T02:20:53;101580.91;;;23.57
75431;BMP280;64127;51.488;5.462;2023-06-22T02:23:25;101608.59;;;23.71
75431;BMP280;64127;51.488;5.462;2023-06-22T02:25:57;101600.56;;;23.68
75431;BMP280;64127;51.488;5.462;2023-06-22T02:28:29;101600.56;;;23.65
75431;BMP280;64127;51.488;5.462;2023-06-22T02:31:01;101593.41;;;23.61
75431;BMP280;64127;51.488;5.462;2023-06-22T02:33:33;101599.66;;;23.63
75431;BMP280;64127;51.488;5.462;2023-06-22T02:36:05;101586.25;;;23.60
75431;BMP280;64127;51.488;5.462;2023-06-22T02:38:41;101579.16;;;23.59
75431;BMP280;64127;51.488;5.462;2023-06-22T02:41:20;101579.13;;;23.56
75431;BMP280;64127;51.488;5.462;2023-06-22T02:43:52;101584.47;;;23.53
75431;BMP280;64127;51.488;5.462;2023-06-22T02:46:24;101597.00;;;23.51
75431;BMP280;64127;51.488;5.462;2023-06-22T02:48:56;101581.81;;;23.46
75431;BMP280;64127;51.488;5.462;2023-06-22T02:51:28;101594.28;;;23.47
75431;BMP280;64127;51.488;5.462;2023-06-22T02:54:00;101588.06;;;23.45
75431;BMP280;64127;51.488;5.462;2023-06-22T02:56:32;101589.84;;;23.41
75431;BMP280;64127;51.488;5.462;2023-06-22T02:59:04;101593.38;;;23.40
75431;BMP280;64127;51.488;5.462;2023-06-22T03:01:37;101584.47;;;23.38
75431;BMP280;64127;51.488;5.462;2023-06-22T03:04:13;101586.22;;;23.36
75431;BMP280;64127;51.488;5.462;2023-06-22T03:06:45;101572.84;;;23.35
75431;BMP280;64127;51.488;5.462;2023-06-22T03:09:22;101565.72;;;23.32
75431;BMP280;64127;51.488;5.462;2023-06-22T03:11:55;101568.38;;;23.32
75431;BMP280;64127;51.488;5.462;2023-06-22T03:14:27;101573.72;;;23.29
75431;BMP280;64127;51.488;5.462;2023-06-22T03:16:59;101566.59;;;23.28
75431;BMP280;64127;51.488;5.462;2023-06-22T03:19:34;101536.25;;;23.08
75431;BMP280;64127;51.488;5.462;2023-06-22T03:22:06;101557.66;;;23.20
75431;BMP280;64127;51.488;5.462;2023-06-22T03:24:39;101562.13;;;23.18
75431;BMP280;64127;51.488;5.462;2023-06-22T03:27:11;101550.50;;;23.16
75431;BMP280;64127;51.488;5.462;2023-06-22T03:29:43;101552.28;;;23.26
75431;BMP280;64127;51.488;5.462;2023-06-22T03:32:16;101552.28;;;23.14
75431;BMP280;64127;51.488;5.462;2023-06-22T03:34:48;101541.59;;;23.08
75431;BMP280;64127;51.488;5.462;2023-06-22T03:37:21;101545.16;;;23.07
75431;BMP280;64127;51.488;5.462;2023-06-22T03:39:53;101545.13;;;23.05
75431;BMP280;64127;51.488;5.462;2023-06-22T03:42:26;101545.16;;;23.04
75431;BMP280;64127;51.488;5.462;2023-06-22T03:44:58;101538.00;;;23.03
75431;BMP280;64127;51.488;5.462;2023-06-22T03:47:30;101537.09;;;22.99
75431;BMP280;64127;51.488;5.462;2023-06-22T03:50:02;101532.66;;;23.00
75431;BMP280;64127;51.488;5.462;2023-06-22T03:52:35;101537.09;;;22.96
75431;BMP280;64127;51.488;5.462;2023-06-22T03:55:08;101536.19;;;22.96
75431;BMP280;64127;51.488;5.462;2023-06-22T03:57:40;101529.06;;;22.95
75431;BMP280;64127;51.488;5.462;2023-06-22T04:00:13;101521.94;;;22.91
75431;BMP280;64127;51.488;5.462;2023-06-22T04:02:45;101536.19;;;22.93
75431;BMP280;64127;51.488;5.462;2023-06-22T04:05:17;101539.75;;;22.92
75431;BMP280;64127;51.488;5.462;2023-06-22T04:07:50;101534.41;;;22.89
75431;BMP280;64127;51.488;5.462;2023-06-22T04:10:22;101546.03;;;22.91
75431;BMP280;64127;51.488;5.462;2023-06-22T04:12:54;101545.09;;;22.89
75431;BMP280;64127;51.488;5.462;2023-06-22T04:15:26;101529.06;;;22.86
75431;BMP280;64127;51.488;5.462;2023-06-22T04:17:59;101540.66;;;22.91
75431;BMP280;64127;51.488;5.462;2023-06-22T04:20:31;101540.66;;;22.92
75431;BMP280;64127;51.488;5.462;2023-06-22T04:23:04;101533.50;;;22.91
75431;BMP280;64127;51.488;5.462;2023-06-22T04:25:36;101539.75;;;22.92
75431;BMP280;64127;51.488;5.462;2023-06-22T04:28:08;101545.09;;;22.95
75431;BMP280;64127;51.488;5.462;2023-06-22T04:30:44;101542.44;;;22.93
75431;BMP280;64127;51.488;5.462;2023-06-22T04:33:19;101535.31;;;22.92
75431;BMP280;64127;51.488;5.462;2023-06-22T04:35:51;101539.75;;;22.95
75431;BMP280;64127;51.488;5.462;2023-06-22T04:38:24;101537.09;;;22.96
75431;BMP280;64127;51.488;5.462;2023-06-22T04:40:56;101538.91;;;23.00
75431;BMP280;64127;51.488;5.462;2023-06-22T04:43:28;101540.69;;;23.03
75431;BMP280;64127;51.488;5.462;2023-06-22T04:46:02;101534.44;;;23.02
75431;BMP280;64127;51.488;5.462;2023-06-22T04:48:35;101541.56;;;23.05
75431;BMP280;64127;51.488;5.462;2023-06-22T04:51:07;101537.13;;;23.04
75431;BMP280;64127;51.488;5.462;2023-06-22T04:53:40;101536.19;;;23.02
75431;BMP280;64127;51.488;5.462;2023-06-22T04:56:12;101539.78;;;23.07
75431;BMP280;64127;51.488;5.462;2023-06-22T04:58:44;101551.41;;;23.10
75431;BMP280;64127;51.488;5.462;2023-06-22T05:01:16;101515.66;;;22.95
75431;BMP280;64127;51.488;5.462;2023-06-22T05:03:49;101551.41;;;23.13
75431;BMP280;64127;51.488;5.462;2023-06-22T05:06:23;101539.78;;;23.13
75431;BMP280;64127;51.488;5.462;2023-06-22T05:08:58;101546.03;;;23.16
75431;BMP280;64127;51.488;5.462;2023-06-22T05:11:30;101540.69;;;23.19
75431;BMP280;64127;51.488;5.462;2023-06-22T05:14:02;101536.22;;;23.23
75431;BMP280;64127;51.488;5.462;2023-06-22T05:16:34;101525.53;;;23.17
75431;BMP280;64127;51.488;5.462;2023-06-22T05:19:07;101531.78;;;23.28
75431;BMP280;64127;51.488;5.462;2023-06-22T05:21:39;101540.72;;;23.32
75431;BMP280;64127;51.488;5.462;2023-06-22T05:24:11;101537.13;;;23.34
75431;BMP280;64127;51.488;5.462;2023-06-22T05:26:43;101538.91;;;23.37
75431;BMP280;64127;51.488;5.462;2023-06-22T05:29:15;101549.66;;;23.38
75431;BMP280;64127;51.488;5.462;2023-06-22T05:31:47;101550.53;;;23.40
75431;BMP280;64127;51.488;5.462;2023-06-22T05:34:19;101529.13;;;23.25
75431;BMP280;64127;51.488;5.462;2023-06-22T05:36:51;101536.25;;;23.38
75431;BMP280;64127;51.488;5.462;2023-06-22T05:39:23;101530.91;;;23.38
75431;BMP280;64127;51.488;5.462;2023-06-22T05:41:55;101507.69;;;23.25
75431;BMP280;64127;51.488;5.462;2023-06-22T05:44:27;101538.94;;;23.43
75431;BMP280;64127;51.488;5.462;2023-06-22T05:47:00;101521.06;;;23.33
75431;BMP280;64127;51.488;5.462;2023-06-22T05:49:32;101531.81;;;23.42
75431;BMP280;64127;51.488;5.462;2023-06-22T05:52:05;101537.19;;;23.49
75431;BMP280;64127;51.488;5.462;2023-06-22T05:54:37;101538.97;;;23.52
75431;BMP280;64127;51.488;5.462;2023-06-22T05:57:10;101531.81;;;23.58
75431;BMP280;64127;51.488;5.462;2023-06-22T05:59:42;101536.28;;;23.62
75431;BMP280;64127;51.488;5.462;2023-06-22T06:02:14;101532.69;;;23.65
75431;BMP280;64127;51.488;5.462;2023-06-22T06:04:46;101537.16;;;23.70
75431;BMP280;64127;51.488;5.462;2023-06-22T06:07:19;101538.94;;;23.73
75431;BMP280;64127;51.488;5.462;2023-06-22T06:09:51;101537.16;;;23.80
75431;BMP280;64127;51.488;5.462;2023-06-22T06:12:23;101531.78;;;23.86
75431;BMP280;64127;51.488;5.462;2023-06-22T06:14:54;101530.88;;;23.90
75431;BMP280;64127;51.488;5.462;2023-06-22T06:17:28;101524.59;;;23.91
75431;BMP280;64127;51.488;5.462;2023-06-22T06:20:01;101531.72;;;23.98
75431;BMP280;64127;51.488;5.462;2023-06-22T06:22:35;101519.25;;;24.00
75431;BMP280;64127;51.488;5.462;2023-06-22T06:25:07;101529.03;;;24.08
75431;BMP280;64127;51.488;5.462;2023-06-22T06:27:39;101528.16;;;24.12
75431;BMP280;64127;51.488;5.462;2023-06-22T06:30:14;101532.63;;;24.15
75431;BMP280;64127;51.488;5.462;2023-06-22T06:32:47;101504.91;;;24.01
75431;BMP280;64127;51.488;5.462;2023-06-22T06:35:20;101528.13;;;24.18
75431;BMP280;64127;51.488;5.462;2023-06-22T06:37:53;101528.13;;;24.18
75431;BMP280;64127;51.488;5.462;2023-06-22T06:40:25;101527.22;;;24.18
75431;BMP280;64127;51.488;5.462;2023-06-22T06:42:57;101530.84;;;24.17
75431;BMP280;64127;51.488;5.462;2023-06-22T06:45:29;101530.84;;;24.17
75431;BMP280;64127;51.488;5.462;2023-06-22T06:48:03;101537.06;;;24.14
75431;BMP280;64127;51.488;5.462;2023-06-22T06:50:35;101538.00;;;24.13
75431;BMP280;64127;51.488;5.462;2023-06-22T06:53:07;101529.03;;;24.10
75431;BMP280;64127;51.488;5.462;2023-06-22T06:55:39;101535.28;;;24.09
75431;BMP280;64127;51.488;5.462;2023-06-22T06:58:11;101530.84;;;24.11
75431;BMP280;64127;51.488;5.462;2023-06-22T07:00:45;101536.19;;;24.11
75431;BMP280;64127;51.488;5.462;2023-06-22T07:03:17;101531.69;;;24.11
75431;BMP280;64127;51.488;5.462;2023-06-22T07:05:49;101530.84;;;24.12
75431;BMP280;64127;51.488;5.462;2023-06-22T07:08:21;101531.72;;;24.08
75431;BMP280;64127;51.488;5.462;2023-06-22T07:10:53;101529.94;;;24.07
75431;BMP280;64127;51.488;5.462;2023-06-22T07:13:25;101539.78;;;24.13
75431;BMP280;64127;51.488;5.462;2023-06-22T07:15:57;101537.09;;;24.13
75431;BMP280;64127;51.488;5.462;2023-06-22T07:18:29;101531.72;;;24.16
75431;BMP280;64127;51.488;5.462;2023-06-22T07:21:02;101528.13;;;24.21
75431;BMP280;64127;51.488;5.462;2023-06-22T07:23:38;101529.88;;;24.29
75431;BMP280;64127;51.488;5.462;2023-06-22T07:26:10;101531.66;;;24.30
75431;BMP280;64127;51.488;5.462;2023-06-22T07:28:44;101525.41;;;24.32
75431;BMP280;64127;51.488;5.462;2023-06-22T07:31:16;101524.50;;;24.36
75431;BMP280;64127;51.488;5.462;2023-06-22T07:33:48;101522.69;;;24.43
75431;BMP280;64127;51.488;5.462;2023-06-22T07:36:20;101518.22;;;24.45
75431;BMP280;64127;51.488;5.462;2023-06-22T07:38:52;101511.03;;;24.47
75431;BMP280;64127;51.488;5.462;2023-06-22T07:41:24;101505.66;;;24.50
75431;BMP280;64127;51.488;5.462;2023-06-22T07:43:56;101494.94;;;24.51
75431;BMP280;64127;51.488;5.462;2023-06-22T07:46:28;101496.69;;;24.55
75431;BMP280;64127;51.488;5.462;2023-06-22T07:49:02;101486.81;;;24.60
75431;BMP280;64127;51.488;5.462;2023-06-22T07:51:34;101477.84;;;24.64
75431;BMP280;64127;51.488;5.462;2023-06-22T07:54:06;101474.22;;;24.71
75431;BMP280;64127;51.488;5.462;2023-06-22T07:56:39;101464.41;;;24.72
75431;BMP280;64127;51.488;5.462;2023-06-22T07:59:11;101459.91;;;24.76
75431;BMP280;64127;51.488;5.462;2023-06-22T08:01:43;101446.44;;;24.82
75431;BMP280;64127;51.488;5.462;2023-06-22T08:04:15;101452.69;;;24.85
75431;BMP280;64127;51.488;5.462;2023-06-22T08:06:47;101443.75;;;24.86
75431;BMP280;64127;51.488;5.462;2023-06-22T08:09:20;101423.16;;;24.81
75431;BMP280;64127;51.488;5.462;2023-06-22T08:11:53;101426.75;;;24.86
75431;BMP280;64127;51.488;5.462;2023-06-22T08:14:27;101420.47;;;24.81
75431;BMP280;64127;51.488;5.462;2023-06-22T08:16:59;101421.38;;;24.86
75431;BMP280;64127;51.488;5.462;2023-06-22T08:19:31;101424.94;;;24.88
75431;BMP280;64127;51.488;5.462;2023-06-22T08:22:04;101424.91;;;24.91
75431;BMP280;64127;51.488;5.462;2023-06-22T08:24:36;101414.19;;;24.91
75431;BMP280;64127;51.488;5.462;2023-06-22T08:27:10;101419.53;;;24.91
75431;BMP280;64127;51.488;5.462;2023-06-22T08:29:43;101414.19;;;24.88
75431;BMP280;64127;51.488;5.462;2023-06-22T08:32:17;101425.84;;;24.88
75431;BMP280;64127;51.488;5.462;2023-06-22T08:34:49;101423.16;;;24.90
75431;BMP280;64127;51.488;5.462;2023-06-22T08:37:21;101435.66;;;24.91
75431;BMP280;64127;51.488;5.462;2023-06-22T08:39:59;101427.63;;;24.89
75431;BMP280;64127;51.488;5.462;2023-06-22T08:42:31;101425.84;;;24.87
75431;BMP280;64127;51.488;5.462;2023-06-22T08:45:04;101420.50;;;24.82
75431;BMP280;64127;51.488;5.462;2023-06-22T08:47:36;101419.59;;;24.85
75431;BMP280;64127;51.488;5.462;2023-06-22T08:50:11;101410.69;;;24.83
75431;BMP280;64127;51.488;5.462;2023-06-22T08:52:43;101412.44;;;24.81
75431;BMP280;64127;51.488;5.462;2023-06-22T08:55:15;101402.66;;;24.75
75431;BMP280;64127;51.488;5.462;2023-06-22T08:57:47;101407.97;;;24.80
75431;BMP280;64127;51.488;5.462;2023-06-22T09:00:19;101414.22;;;24.85
75431;BMP280;64127;51.488;5.462;2023-06-22T09:02:52;101398.13;;;24.85
75431;BMP280;64127;51.488;5.462;2023-06-22T09:05:24;101399.03;;;24.85
75431;BMP280;64127;51.488;5.462;2023-06-22T09:08:00;101396.31;;;24.87
75431;BMP280;64127;51.488;5.462;2023-06-22T09:10:32;101393.63;;;24.88
75431;BMP280;64127;51.488;5.462;2023-06-22T09:13:04;101396.28;;;24.93
75431;BMP280;64127;51.488;5.462;2023-06-22T09:15:36;101386.41;;;24.93
75431;BMP280;64127;51.488;5.462;2023-06-22T09:18:11;101386.38;;;24.98
75431;BMP280;64127;51.488;5.462;2023-06-22T09:20:45;101382.78;;;24.97
75431;BMP280;64127;51.488;5.462;2023-06-22T09:23:17;101388.13;;;25.03
75431;BMP280;64127;51.488;5.462;2023-06-22T09:25:49;101384.50;;;25.09
75431;BMP280;64127;51.488;5.462;2023-06-22T09:28:21;101384.47;;;25.13
75431;BMP280;64127;51.488;5.462;2023-06-22T09:30:53;101383.53;;;25.16
75431;BMP280;64127;51.488;5.462;2023-06-22T09:33:29;101392.41;;;25.21
75431;BMP280;64127;51.488;5.462;2023-06-22T09:36:02;101386.13;;;25.23
75431;BMP280;64127;51.488;5.462;2023-06-22T09:38:40;101382.53;;;25.24
75431;BMP280;64127;51.488;5.462;2023-06-22T09:41:12;101386.09;;;25.27
75431;BMP280;64127;51.488;5.462;2023-06-22T09:43:44;101370.91;;;25.21
75431;BMP280;64127;51.488;5.462;2023-06-22T09:46:16;101370.06;;;25.20
75431;BMP280;64127;51.488;5.462;2023-06-22T09:48:48;101382.50;;;25.28
75431;BMP280;64127;51.488;5.462;2023-06-22T09:51:20;101375.31;;;25.30
75431;BMP280;64127;51.488;5.462;2023-06-22T09:53:53;101371.78;;;25.24
75431;BMP280;64127;51.488;5.462;2023-06-22T09:56:25;101369.06;;;25.28
75431;BMP280;64127;51.488;5.462;2023-06-22T09:59:00;101370.84;;;25.29
75431;BMP280;64127;51.488;5.462;2023-06-22T10:01:48;101362.88;;;25.22
75431;BMP280;64127;51.488;5.462;2023-06-22T10:04:20;101370.03;;;25.22
75431;BMP280;64127;51.488;5.462;2023-06-22T10:06:53;101359.28;;;25.22
75431;BMP280;64127;51.488;5.462;2023-06-22T10:09:25;101368.19;;;25.26
75431;BMP280;64127;51.488;5.462;2023-06-22T10:11:57;101355.69;;;25.21
75431;BMP280;64127;51.488;5.462;2023-06-22T10:14:29;101368.16;;;25.30
75431;BMP280;64127;51.488;5.462;2023-06-22T10:17:02;101362.75;;;25.33
75431;BMP280;64127;51.488;5.462;2023-06-22T10:19:34;101369.00;;;25.35
75431;BMP280;64127;51.488;5.462;2023-06-22T10:22:09;101365.50;;;25.27
75431;BMP280;64127;51.488;5.462;2023-06-22T10:24:41;101371.72;;;25.34
75431;BMP280;64127;51.488;5.462;2023-06-22T10:27:16;101371.66;;;25.37
75431;BMP280;64127;51.488;5.462;2023-06-22T10:29:48;101375.22;;;25.40
75431;BMP280;64127;51.488;5.462;2023-06-22T10:32:20;101380.59;;;25.40
75431;BMP280;64127;51.488;5.462;2023-06-22T10:34:52;101377.03;;;25.37
75431;BMP280;64127;51.488;5.462;2023-06-22T10:37:24;101387.75;;;25.38
75431;BMP280;64127;51.488;5.462;2023-06-22T10:39:56;101381.56;;;25.32
75431;BMP280;64127;51.488;5.462;2023-06-22T10:42:28;101393.13;;;25.38
75431;BMP280;64127;51.488;5.462;2023-06-22T10:45:00;101403.00;;;25.36
75431;BMP280;64127;51.488;5.462;2023-06-22T10:47:32;101410.22;;;25.34
75431;BMP280;64127;51.488;5.462;2023-06-22T10:50:05;101411.09;;;25.33
75431;BMP280;64127;51.488;5.462;2023-06-22T10:52:38;101412.91;;;25.31
75431;BMP280;64127;51.488;5.462;2023-06-22T10:55:10;101406.72;;;25.23
75431;BMP280;64127;51.488;5.462;2023-06-22T10:57:42;101417.47;;;25.23
75431;BMP280;64127;51.488;5.462;2023-06-22T11:00:16;101412.16;;;25.17
75431;BMP280;64127;51.488;5.462;2023-06-22T11:02:48;101416.69;;;25.10
75431;BMP280;64127;51.488;5.462;2023-06-22T11:05:20;101414.13;;;24.97
75431;BMP280;64127;51.488;5.462;2023-06-22T11:07:52;101424.03;;;24.92
75431;BMP280;64127;51.488;5.462;2023-06-22T11:10:24;101428.53;;;24.90
75431;BMP280;64127;51.488;5.462;2023-06-22T11:12:58;101424.06;;;24.84
75431;BMP280;64127;51.488;5.462;2023-06-22T11:15:30;101426.75;;;24.80
75431;BMP280;64127;51.488;5.462;2023-06-22T11:18:02;101434.81;;;24.78
75431;BMP280;64127;51.488;5.462;2023-06-22T11:20:34;101438.44;;;24.71
75431;BMP280;64127;51.488;5.462;2023-06-22T11:23:10;101447.44;;;24.64
75431;BMP280;64127;51.488;5.462;2023-06-22T11:25:44;101455.50;;;24.59
75431;BMP280;64127;51.488;5.462;2023-06-22T11:28:16;101457.34;;;24.54
75431;BMP280;64127;51.488;5.462;2023-06-22T11:30:48;101458.25;;;24.50
75431;BMP280;64127;51.488;5.462;2023-06-22T11:33:21;101465.44;;;24.45
75431;BMP280;64127;51.488;5.462;2023-06-22T11:35:53;101453.88;;;24.37
75431;BMP280;64127;51.488;5.462;2023-06-22T11:38:25;101447.63;;;24.32
75431;BMP280;64127;51.488;5.462;2023-06-22T11:40:58;101438.72;;;24.27
75431;BMP280;64127;51.488;5.462;2023-06-22T11:43:30;101423.56;;;24.20
75431;BMP280;64127;51.488;5.462;2023-06-22T11:46:03;101405.75;;;24.13
75431;BMP280;64127;51.488;5.462;2023-06-22T11:48:35;101395.91;;;24.06
75431;BMP280;64127;51.488;5.462;2023-06-22T11:51:08;101386.97;;;24.01
75431;BMP280;64127;51.488;5.462;2023-06-22T11:53:40;101383.44;;;23.94
75431;BMP280;64127;51.488;5.462;2023-06-22T11:56:12;101393.31;;;23.89
75431;BMP280;64127;51.488;5.462;2023-06-22T11:58:44;101388.84;;;23.88
75431;BMP280;64127;51.488;5.462;2023-06-22T12:01:16;101383.50;;;23.84
75431;BMP280;64127;51.488;5.462;2023-06-22T12:03:48;101376.38;;;23.83
75431;BMP280;64127;51.488;5.462;2023-06-22T12:06:20;101368.34;;;23.80
75431;BMP280;64127;51.488;5.462;2023-06-22T12:08:53;101354.94;;;23.80
75431;BMP280;64127;51.488;5.462;2023-06-22T12:11:25;101327.38;;;23.59
75431;BMP280;64127;51.488;5.462;2023-06-22T12:13:56;101356.72;;;23.78
75431;BMP280;64127;51.488;5.462;2023-06-22T12:16:33;101354.03;;;23.78
75431;BMP280;64127;51.488;5.462;2023-06-22T12:19:05;101355.84;;;23.76
75431;BMP280;64127;51.488;5.462;2023-06-22T12:21:38;101358.56;;;23.72
75431;BMP280;64127;51.488;5.462;2023-06-22T12:24:11;101374.66;;;23.69
75431;BMP280;64127;51.488;5.462;2023-06-22T12:26:43;101378.22;;;23.65
75431;BMP280;64127;51.488;5.462;2023-06-22T12:29:15;101357.72;;;23.63
75431;BMP280;64127;51.488;5.462;2023-06-22T12:31:47;101350.53;;;23.63
75431;BMP280;64127;51.488;5.462;2023-06-22T12:34:19;101352.34;;;23.60
75431;BMP280;64127;51.488;5.462;2023-06-22T12:36:51;101345.22;;;23.57
75431;BMP280;64127;51.488;5.462;2023-06-22T12:39:26;101350.56;;;23.57
75431;BMP280;64127;51.488;5.462;2023-06-22T12:41:58;101347.91;;;23.54
75431;BMP280;64127;51.488;5.462;2023-06-22T12:44:30;101353.31;;;23.45
75431;BMP280;64127;51.488;5.462;2023-06-22T12:47:02;101354.19;;;23.38
75431;BMP280;64127;51.488;5.462;2023-06-22T12:49:35;101352.38;;;23.37
75431;BMP280;64127;51.488;5.462;2023-06-22T12:52:10;101354.16;;;23.37
75431;BMP280;64127;51.488;5.462;2023-06-22T12:54:43;101327.44;;;23.20
75431;BMP280;64127;51.488;5.462;2023-06-22T12:57:26;101332.75;;;23.29
75431;BMP280;64127;51.488;5.462;2023-06-22T12:59:58;101332.78;;;23.32
75431;BMP280;64127;51.488;5.462;2023-06-22T13:02:32;101337.22;;;23.33
75431;BMP280;64127;51.488;5.462;2023-06-22T13:05:04;101330.97;;;23.34
75431;BMP280;64127;51.488;5.462;2023-06-22T13:07:37;101338.13;;;23.34
75431;BMP280;64127;51.488;5.462;2023-06-22T13:10:09;101341.69;;;23.33
75431;BMP280;64127;51.488;5.462;2023-06-22T13:12:42;101336.34;;;23.27
75431;BMP280;64127;51.488;5.462;2023-06-22T13:15:14;101334.59;;;23.21
75431;BMP280;64127;51.488;5.462;2023-06-22T13:17:46;101323.88;;;23.16
75431;BMP280;64127;51.488;5.462;2023-06-22T13:20:18;101320.31;;;23.16
75431;BMP280;64127;51.488;5.462;2023-06-22T13:22:50;101306.06;;;23.14
75431;BMP280;64127;51.488;5.462;2023-06-22T13:25:22;101298.91;;;23.16
75431;BMP280;64127;51.488;5.462;2023-06-22T13:27:58;101298.91;;;23.16
75431;BMP280;64127;51.488;5.462;2023-06-22T13:30:31;101285.53;;;23.10
75431;BMP280;64127;51.488;5.462;2023-06-22T13:33:03;101280.19;;;23.14
75431;BMP280;64127;51.488;5.462;2023-06-22T13:35:35;101279.31;;;23.11
75431;BMP280;64127;51.488;5.462;2023-06-22T13:38:08;101266.72;;;23.33
75431;BMP280;64127;51.488;5.462;2023-06-22T13:40:41;101257.00;;;23.09
75431;BMP280;64127;51.488;5.462;2023-06-22T13:43:13;101260.59;;;22.99
75431;BMP280;64127;51.488;5.462;2023-06-22T13:45:45;101272.19;;;23.07
75431;BMP280;64127;51.488;5.462;2023-06-22T13:48:17;101257.03;;;22.95
75431;BMP280;64127;51.488;5.462;2023-06-22T13:50:49;101281.13;;;22.94
75431;BMP280;64127;51.488;5.462;2023-06-22T13:53:21;101275.81;;;22.88
75431;BMP280;64127;51.488;5.462;2023-06-22T13:55:53;101267.78;;;22.83
75431;BMP280;64127;51.488;5.462;2023-06-22T13:58:25;101258.84;;;22.83
75431;BMP280;64127;51.488;5.462;2023-06-22T14:00:57;101275.78;;;22.94
75431;BMP280;64127;51.488;5.462;2023-06-22T14:03:29;101272.19;;;22.92
75431;BMP280;64127;51.488;5.462;2023-06-22T14:06:01;101274.94;;;22.84
75431;BMP280;64127;51.488;5.462;2023-06-22T14:08:33;101272.25;;;22.80
75431;BMP280;64127;51.488;5.462;2023-06-22T14:11:12;101267.78;;;22.80
75431;BMP280;64127;51.488;5.462;2023-06-22T14:13:45;101267.78;;;22.79
75431;BMP280;64127;51.488;5.462;2023-06-22T14:16:17;101252.63;;;22.65
75431;BMP280;64127;51.488;5.462;2023-06-22T14:18:49;101263.34;;;22.73
75431;BMP280;64127;51.488;5.462;2023-06-22T14:21:21;101272.28;;;22.70
75431;BMP280;64127;51.488;5.462;2023-06-22T14:23:53;101253.53;;;22.67
75431;BMP280;64127;51.488;5.462;2023-06-22T14:26:25;101259.78;;;22.63
75431;BMP280;64127;51.488;5.462;2023-06-22T14:28:57;101247.28;;;22.62
75431;BMP280;64127;51.488;5.462;2023-06-22T14:31:30;101236.59;;;22.53
75431;BMP280;64127;51.488;5.462;2023-06-22T14:34:02;101251.75;;;22.59
75431;BMP280;64127;51.488;5.462;2023-06-22T14:36:35;101247.31;;;22.53